AirNav   Everest Fuels
 
 385 users online  

24LA ERA Helicopters Cameron Base Heliport
Cameron, Louisiana, USA

GOING TO CAMERON?


FAA INFORMATION EFFECTIVE 08 SEPTEMBER 2022

Location

FAA Identifier: 24LA
Lat/Long: 29-46-49.2600N 093-17-34.0300W
29-46.821000N 093-17.567167W
29.7803500,-93.2927861
(estimated)
Elevation: 4 ft. / 1 m (estimated)
Variation: 03E (2000)
From city: 2 miles SE of CAMERON, LA
Time zone: UTC -5 (UTC -6 during Standard Time)
Zip code: 70631

Heliport Operations

Heliport use: Private use. Permission required prior to landing
Activation date: 07/1980
Control tower: no
ARTCC: HOUSTON CENTER
FSS: DE RIDDER FLIGHT SERVICE STATION
NOTAMs facility: FDC (NOTAM-D service not available)
Attendance: CONTINUOUS
Wind indicator: yes
Segmented circle: no
Lights: FOR PERIMETER LGTS CALL 318-478-6131.

Heliport Communications

  • MULTICOM 131.570.

Nearby radio navigation aids

VOR radial/distance  VOR name  Freq  Var
LCHr197/23.8LAKE CHARLES VORTAC113.4007E
BPTr098/38.9BEAUMONT VOR/DME114.5007E
SBIr075/39.2SABINE PASS VOR/DME115.4007E

 
NDB name  Hdg/Dist  Freq  Var  ID
SULPHUR161/26.027804EAUR .- ..- .-.

Heliport Services

Fuel available: A

Runway Information

Helipad H1

Dimensions: 400 x 200 ft. / 122 x 61 m
Surface: concrete
Runway edge lights: PERIMETER LGTS.
Latitude: 29-46.821000N
Longitude: 093-17.567167W
Elevation: 4.0 ft.
Traffic pattern: leftleft

Heliport Ownership and Management from official FAA records

Ownership: Privately-owned
Owner: ERA HELICOPTERS,LLC
600 AIRPORT BLVD
LAKE CHARLES, LA 70607-0610
Phone 337-478-6131
Manager: KURT COVINGTON
600 AIRPORT BLVD
LAKE CHARLES, LA 70607-0610
Phone 337-478-6131

Heliport Operational Statistics

Aircraft based on the field: 5
Helicopters: 5
    

Additional Remarks

FOR CD CTC LAKE CHARLES APCH AT 337-480-3103, WHEN APCH CLSD CTC HOUSTON ARTCC AT 281-230-5622.

Instrument Procedures

There are no published instrument procedures at 24LA.

Some nearby airports with instrument procedures:

KLCH - Lake Charles Regional Airport (21 nm N)
KUXL - Southland Field Airport (22 nm N)
KCWF - Chennault International Airport (27 nm N)
KORG - Orange County Airport (32 nm NW)
6R1 - Welsh Airport (37 nm NE)
 
Loc | Ops | Rwys | IFR | FBO | Links
Com | Nav | Svcs | Stats | Notes
Area around 24LA (ERA Helicopters Cameron Base Heliport)
 
Road maps at: MapQuest Bing Google
 
Aerial photo
No photo
 
Sectional chart

 
Airport distance calculator
Flying to ERA Helicopters Cameron Base Heliport? Find the distance to fly.

From to 24LA

Sunrise and sunset
Times for 02-Oct-2022
 Local
(UTC-5)
 Zulu
(UTC)
Morning civil twilight06:4411:44
Sunrise07:0812:08
Sunset18:5723:57
Evening civil twilight19:2100:21

Current date and time
Zulu (UTC)  02-Oct-2022 10:14:47
Local (UTC-5)  02-Oct-2022 05:14:47
 
METAR
KUXL 
22nm N 
020955Z AUTO 00000KT 10SM CLR 11/08 A3007 RMK AO2 T01140077
KLCH 
22nm N 
020953Z AUTO 03003KT 10SM CLR 14/08 A3006 RMK AO2 SLP187 T01390083
KCWF 
27nm N 
020955Z AUTO 03004KT 10SM CLR 14/09 A3007 RMK AO2 T01440086
KORG 
32nm NW 
020955Z AUTO 00000KT 10SM CLR 12/10 A3009 RMK AO2 T01180101
KBPT 
40nm W 
020953Z AUTO 03003KT 10SM CLR 13/09 A3006 RMK AO2 SLP179 T01280094 $
K5R8 
41nm N 
020955Z AUTO 00000KT 10SM CLR 09/08 A3008 RMK AO2 T00930080
K3R7 
42nm NE 
020955Z AUTO 00000KT 10SM CLR 12/10 A3007 RMK AO2 T01190097
TAF
KLCH 
22nm N 
020520Z 0206/0306 VRB04KT P6SM SKC FM021500 04007KT P6SM SKC FM030100 VRB03KT P6SM SKC
NOTAMs
Click for the latest NOTAMs
NOTAMs are issued by the DoD/FAA and will open in a separate window not controlled by AirNav.

 

 
 

Would you like to see your business listed on this page?

 If your business provides an interesting product or service to pilots, flight crews, aircraft, or users of the ERA Helicopters Cameron Base Heliport, you should consider listing it here.  To start the listing process, click on the button below
 
Add a business
 

Other Pages about ERA Helicopters Cameron Base Heliport

Update a link
 
Copyright © AirNav, LLC. All rights reserved. Privacy Policy  Contact